createdAt,value
2019-01-15T00:00:03.912Z,99821
2019-01-15T00:05:03.917Z,99825
2019-01-15T00:10:03.918Z,99828
2019-01-15T00:15:03.913Z,99823
2019-01-15T00:20:03.920Z,99834
2019-01-15T00:25:04.083Z,99834
2019-01-15T00:30:03.919Z,99844
2019-01-15T00:35:03.968Z,99842
2019-01-15T00:40:03.936Z,99840
2019-01-15T00:45:03.925Z,99848
2019-01-15T00:50:03.954Z,99857
2019-01-15T00:55:03.923Z,99845
2019-01-15T01:00:03.961Z,99860
2019-01-15T01:05:03.909Z,99867
2019-01-15T01:10:03.921Z,99879
2019-01-15T01:15:03.938Z,99883
2019-01-15T01:20:03.920Z,99877
2019-01-15T01:25:03.921Z,99888
2019-01-15T01:30:03.942Z,99882
2019-01-15T01:35:03.932Z,99870
2019-01-15T01:40:03.951Z,99889
2019-01-15T01:45:03.951Z,99888
2019-01-15T01:50:03.930Z,99889
2019-01-15T01:55:03.932Z,99902
2019-01-15T02:00:03.938Z,99889
2019-01-15T02:05:03.937Z,99905
2019-01-15T02:10:03.935Z,99911
2019-01-15T02:15:03.956Z,99903
2019-01-15T02:20:03.955Z,99900
2019-01-15T02:25:03.940Z,99916
2019-01-15T02:30:03.958Z,99905
2019-01-15T02:35:03.928Z,99916
2019-01-15T02:40:03.931Z,99913
2019-01-15T02:45:03.968Z,99921
2019-01-15T02:50:03.981Z,99919
2019-01-15T02:55:03.952Z,99918
2019-01-15T03:00:03.971Z,99913
2019-01-15T03:05:03.967Z,99922
2019-01-15T03:10:03.977Z,99918
2019-01-15T03:15:04.020Z,99922
2019-01-15T03:20:03.980Z,99929
2019-01-15T03:25:03.971Z,99926
2019-01-15T03:30:03.998Z,99928
2019-01-15T03:35:03.988Z,99939
2019-01-15T03:40:03.960Z,99921
2019-01-15T03:45:05.032Z,99924
2019-01-15T03:50:03.993Z,99919
2019-01-15T03:55:03.971Z,99934
2019-01-15T04:00:03.984Z,99930
2019-01-15T04:05:03.972Z,99946
2019-01-15T04:10:03.991Z,99941
2019-01-15T04:15:04.010Z,99949
2019-01-15T04:20:03.999Z,99954
2019-01-15T04:25:03.983Z,99945
2019-01-15T04:30:04.002Z,99949
2019-01-15T04:35:03.986Z,99960
2019-01-15T04:40:04.016Z,99945
2019-01-15T04:45:04.019Z,99940
2019-01-15T04:50:03.991Z,99946
2019-01-15T04:55:04.015Z,99943
2019-01-15T05:00:04.041Z,99943
2019-01-15T05:05:04.004Z,99943
2019-01-15T05:10:04.021Z,99943
2019-01-15T05:15:04.015Z,99943
2019-01-15T05:20:04.008Z,99943
2019-01-15T05:25:04.013Z,99964
2019-01-15T05:30:04.031Z,99955
2019-01-15T05:35:04.024Z,99967
2019-01-15T05:40:03.997Z,99973
2019-01-15T05:45:04.027Z,99971
2019-01-15T05:50:03.998Z,99968
2019-01-15T05:55:04.033Z,99970
2019-01-15T06:00:04.039Z,99949
2019-01-15T06:05:04.071Z,99964
2019-01-15T06:10:04.035Z,99955
2019-01-15T06:15:04.037Z,99939
2019-01-15T06:20:04.031Z,99939
2019-01-15T06:25:04.014Z,99952
2019-01-15T06:30:04.014Z,99951
2019-01-15T06:35:04.029Z,99958
2019-01-15T06:40:04.036Z,99958
2019-01-15T06:45:04.037Z,99960
2019-01-15T06:50:04.036Z,99970
2019-01-15T06:55:04.044Z,99976
2019-01-15T07:00:04.054Z,99969
2019-01-15T07:05:04.068Z,99980
2019-01-15T07:10:04.052Z,99964
2019-01-15T07:15:04.040Z,99971
2019-01-15T07:20:04.058Z,99979
2019-01-15T07:25:04.045Z,99979
2019-01-15T07:30:04.061Z,99987
2019-01-15T07:35:04.047Z,99988
2019-01-15T07:40:04.060Z,99992
2019-01-15T07:45:04.034Z,99988
2019-01-15T07:50:04.063Z,99981
2019-01-15T07:55:04.069Z,99994
2019-01-15T08:00:04.034Z,99996
2019-01-15T08:05:04.060Z,99996
2019-01-15T08:10:04.073Z,99995
2019-01-15T08:15:04.060Z,99995
2019-01-15T08:20:04.082Z,99980
2019-01-15T08:25:04.083Z,99959
2019-01-15T08:30:04.108Z,99954
2019-01-15T08:35:04.109Z,99938
2019-01-15T08:40:04.080Z,99931
2019-01-15T08:45:04.059Z,99932
2019-01-15T08:50:04.096Z,99933
2019-01-15T08:55:04.062Z,99947
2019-01-15T09:00:04.086Z,99931
2019-01-15T09:05:04.104Z,99927
2019-01-15T09:10:04.078Z,99949
2019-01-15T09:15:04.091Z,99936
2019-01-15T09:20:04.894Z,99938
2019-01-15T09:25:04.099Z,99925
2019-01-15T09:30:04.105Z,99932
2019-01-15T09:35:04.098Z,99928
2019-01-15T09:40:04.104Z,99923
2019-01-15T09:45:04.109Z,99905
2019-01-15T09:50:04.102Z,99913
2019-01-15T09:55:04.105Z,99896
2019-01-15T10:00:04.111Z,99897
2019-01-15T10:05:04.117Z,99887
2019-01-15T10:10:04.101Z,99891
2019-01-15T10:15:04.120Z,99885
2019-01-15T10:20:04.123Z,99878
2019-01-15T10:25:04.119Z,99872
2019-01-15T10:30:04.114Z,99876
2019-01-15T10:35:04.124Z,99874
2019-01-15T10:40:04.122Z,99863
2019-01-15T10:45:04.107Z,99841
2019-01-15T10:50:04.390Z,99844
2019-01-15T10:55:04.188Z,99825
2019-01-15T11:00:04.186Z,99834
2019-01-15T11:05:04.176Z,99822
2019-01-15T11:10:04.139Z,99822
2019-01-15T11:15:04.116Z,99833
2019-01-15T11:20:04.199Z,99827
2019-01-15T11:25:04.135Z,99819
2019-01-15T11:40:04.001Z,99809
2019-01-15T11:55:03.969Z,99782
2019-01-15T12:00:03.890Z,99787
2019-01-15T12:05:03.867Z,99759
2019-01-15T12:10:03.889Z,99777
2019-01-15T12:15:10.580Z,99764
2019-01-15T12:20:03.896Z,99764
2019-01-15T12:25:03.905Z,99763
2019-01-15T12:30:03.875Z,99761
2019-01-15T12:35:03.881Z,99757
2019-01-15T12:40:03.898Z,99743
2019-01-15T12:45:03.882Z,99743
2019-01-15T12:50:03.892Z,99741
2019-01-15T12:55:03.911Z,99745
2019-01-15T13:00:03.899Z,99752
2019-01-15T13:05:03.883Z,99742
2019-01-15T13:10:03.920Z,99736
2019-01-15T13:15:03.890Z,99734
2019-01-15T13:20:03.887Z,99734
2019-01-15T13:25:03.917Z,99735
2019-01-15T13:30:03.907Z,99734
2019-01-15T13:35:03.916Z,99751
2019-01-15T13:40:03.921Z,99739
2019-01-15T13:45:03.925Z,99724
2019-01-15T13:50:03.925Z,99727
2019-01-15T13:55:03.986Z,99726
2019-01-15T14:00:03.939Z,99700
2019-01-15T14:05:03.928Z,99705
2019-01-15T14:10:03.928Z,99701
2019-01-15T14:15:03.924Z,99687
2019-01-15T14:20:03.925Z,99687
2019-01-15T14:25:03.930Z,99677
2019-01-15T14:30:03.932Z,99682
2019-01-15T14:35:03.911Z,99678
2019-01-15T14:40:03.916Z,99663
2019-01-15T14:45:03.934Z,99665
2019-01-15T14:50:03.927Z,99671
2019-01-15T14:55:03.937Z,99668
2019-01-15T15:00:03.932Z,99651
2019-01-15T15:05:03.923Z,99681
2019-01-15T15:10:03.944Z,99682
2019-01-15T15:15:03.978Z,99671
2019-01-15T15:20:03.947Z,99670
2019-01-15T15:25:03.948Z,99669
2019-01-15T15:30:03.935Z,99664
2019-01-15T15:35:03.913Z,99672
2019-01-15T15:40:03.939Z,99665
2019-01-15T15:45:03.934Z,99662
2019-01-15T15:50:03.930Z,99647
2019-01-15T15:55:03.940Z,99640
2019-01-15T16:00:03.949Z,99647
2019-01-15T16:05:03.953Z,99649
2019-01-15T16:10:03.953Z,99649
2019-01-15T16:15:03.929Z,99651
2019-01-15T16:20:03.916Z,99649
2019-01-15T16:25:30.938Z,99634
2019-01-15T16:30:03.957Z,99634
2019-01-15T16:35:03.949Z,99634
2019-01-15T16:40:03.958Z,99634
2019-01-15T16:45:03.934Z,99634
2019-01-15T16:50:11.101Z,99648
2019-01-15T16:55:03.933Z,99644
2019-01-15T17:00:03.962Z,99639
2019-01-15T17:05:03.940Z,99639
2019-01-15T17:10:03.960Z,99642
2019-01-15T17:15:03.965Z,99635
2019-01-15T17:20:03.941Z,99625
2019-01-15T17:25:03.946Z,99636
2019-01-15T17:30:03.978Z,99641
2019-01-15T17:35:03.974Z,99632
2019-01-15T17:40:03.982Z,99626
2019-01-15T17:45:04.010Z,99628
2019-01-15T17:50:03.952Z,99635
2019-01-15T17:55:03.978Z,99631
2019-01-15T18:00:03.988Z,99632
2019-01-15T18:05:03.957Z,99627
2019-01-15T18:10:03.991Z,99639
2019-01-15T18:15:03.980Z,99630
2019-01-15T18:20:03.963Z,99626
2019-01-15T18:25:03.961Z,99632
2019-01-15T18:30:03.998Z,99619
2019-01-15T18:35:03.961Z,99619
2019-01-15T18:40:03.963Z,99631
2019-01-15T18:45:03.988Z,99620
2019-01-15T18:50:04.008Z,99610
2019-01-15T18:55:04.000Z,99604
2019-01-15T19:00:04.113Z,99607
2019-01-15T19:05:04.000Z,99627
2019-01-15T19:10:03.995Z,99620
2019-01-15T19:15:03.999Z,99619
2019-01-15T19:20:03.995Z,99617
2019-01-15T19:25:04.008Z,99625
2019-01-15T19:30:04.004Z,99625
2019-01-15T19:35:04.001Z,99629
2019-01-15T19:40:04.007Z,99637
2019-01-15T19:45:04.012Z,99638
2019-01-15T19:50:04.003Z,99627
2019-01-15T19:55:04.012Z,99638
2019-01-15T20:00:04.079Z,99642
2019-01-15T20:10:04.018Z,99641
2019-01-15T20:15:04.068Z,99640
2019-01-15T20:20:04.012Z,99647
2019-01-15T20:25:04.014Z,99647
2019-01-15T20:30:04.059Z,99648
2019-01-15T20:35:04.021Z,99665
2019-01-15T20:40:04.022Z,99659
2019-01-15T20:45:04.035Z,99653
2019-01-15T20:50:04.019Z,99669
2019-01-15T20:55:04.035Z,99653
2019-01-15T21:00:04.048Z,99658
2019-01-15T21:05:04.030Z,99663
2019-01-15T21:10:04.036Z,99654
2019-01-15T21:15:04.034Z,99656
2019-01-15T21:20:04.046Z,99658
2019-01-15T21:25:04.047Z,99655
2019-01-15T21:30:04.079Z,99656
2019-01-15T21:35:04.037Z,99664
2019-01-15T21:40:04.048Z,99657
2019-01-15T21:45:04.197Z,99666
2019-01-15T21:50:04.041Z,99660
2019-01-15T21:55:04.050Z,99672
2019-01-15T22:00:04.094Z,99660
2019-01-15T22:05:04.067Z,99660
2019-01-15T22:10:04.051Z,99668
2019-01-15T22:15:04.051Z,99670
2019-01-15T22:20:04.058Z,99658
2019-01-15T22:25:04.253Z,99655
2019-01-15T22:30:04.047Z,99656
2019-01-15T22:35:04.064Z,99661
2019-01-15T22:40:04.049Z,99647
2019-01-15T22:45:04.058Z,99648
2019-01-15T22:50:04.079Z,99649
2019-01-15T22:55:04.055Z,99641
2019-01-15T23:00:04.053Z,99647
2019-01-15T23:05:04.102Z,99646
2019-01-15T23:10:04.032Z,99637
2019-01-15T23:15:09.068Z,99656
2019-01-15T23:20:04.064Z,99643
2019-01-15T23:25:04.073Z,99642
2019-01-15T23:30:04.058Z,99646
2019-01-15T23:35:04.102Z,99643
2019-01-15T23:40:04.078Z,99642
2019-01-15T23:45:04.058Z,99643
2019-01-15T23:50:04.105Z,99641
2019-01-15T23:55:04.093Z,99649
